Time;durP1;ratioP1;P1;durP2;ratioP2;P2;SDS_P1;SDS_P2;PMS_P1;PMS_P2;Temp;Humidity;BMP_temperature;BMP_pressure;BME280_temperature;BME280_humidity;BME280_pressure;Samples;Min_cycle;Max_cycle;Signal;HPM_P1;HPM_P2
2023/01/19 00:02:01;;;;;;;23.40;13.88;;;1.50;77.00;;;;;;4152285;28;20071;-87
2023/01/19 00:04:21;;;;;;;23.60;13.27;;;1.50;77.10;;;;;;4155308;28;20056;-85
2023/01/19 00:06:40;;;;;;;24.67;13.80;;;1.50;77.10;;;;;;4132992;28;20482;-86
2023/01/19 00:08:59;;;;;;;25.42;13.43;;;1.50;77.10;;;;;;4151706;28;20044;-86
2023/01/19 00:11:19;;;;;;;26.70;14.18;;;1.50;77.20;;;;;;4152927;28;20105;-86
2023/01/19 00:13:39;;;;;;;25.60;14.68;;;1.60;77.30;;;;;;4154137;28;20123;-87
2023/01/19 00:15:58;;;;;;;24.00;13.70;;;1.60;77.30;;;;;;4134924;28;20049;-87
2023/01/19 00:18:17;;;;;;;27.58;14.25;;;1.60;77.30;;;;;;4155686;28;20031;-87
2023/01/19 00:20:36;;;;;;;22.38;12.98;;;1.60;77.30;;;;;;4136620;28;20052;-86
2023/01/19 00:22:55;;;;;;;24.17;13.77;;;1.60;77.40;;;;;;4137509;28;20461;-86
2023/01/19 00:25:15;;;;;;;23.52;12.55;;;1.60;77.50;;;;;;4152057;28;20041;-86
2023/01/19 00:27:34;;;;;;;22.20;12.60;;;1.60;77.50;;;;;;4134943;28;20097;-86
2023/01/19 00:29:53;;;;;;;24.50;12.95;;;1.60;77.50;;;;;;4153756;28;20108;-86
2023/01/19 00:32:13;;;;;;;24.92;13.80;;;1.70;77.60;;;;;;4150518;28;20044;-86
2023/01/19 00:34:41;;;;;;;20.90;13.00;;;1.70;77.60;;;;;;4156015;28;20060;-86
2023/01/19 00:37:01;;;;;;;21.60;12.93;;;1.70;77.60;;;;;;4134276;28;20053;-86
2023/01/19 00:39:20;;;;;;;23.30;12.98;;;1.70;77.60;;;;;;4156922;28;20047;-85
2023/01/19 00:44:18;;;;;;;22.77;12.77;;;1.70;77.60;;;;;;4154124;28;20064;-87
2023/01/19 00:46:38;;;;;;;21.92;12.73;;;1.70;77.60;;;;;;4149777;28;20068;-87
2023/01/19 00:48:57;;;;;;;25.92;13.50;;;1.80;77.60;;;;;;4156229;28;20060;-86
2023/01/19 00:51:16;;;;;;;22.02;12.65;;;1.80;77.60;;;;;;4136398;28;20044;-87
2023/01/19 00:53:35;;;;;;;25.50;13.98;;;1.80;77.60;;;;;;4151453;28;20045;-86
2023/01/19 00:55:54;;;;;;;22.48;12.82;;;1.80;77.60;;;;;;4154782;28;20040;-88
2023/01/19 00:58:13;;;;;;;24.63;12.43;;;1.80;77.60;;;;;;4154492;28;20068;-88
2023/01/19 01:00:32;;;;;;;21.38;11.93;;;1.80;77.60;;;;;;4136767;28;20153;-87
2023/01/19 01:02:52;;;;;;;19.77;12.60;;;1.80;77.60;;;;;;4152463;28;20104;-86
2023/01/19 01:05:11;;;;;;;22.92;11.60;;;1.80;77.60;;;;;;4151778;28;20396;-87
2023/01/19 01:07:39;;;;;;;22.67;11.77;;;1.80;78.40;;;;;;4155492;28;20176;-88
2023/01/19 01:09:58;;;;;;;20.70;11.98;;;1.80;77.60;;;;;;4144755;28;20110;-88
2023/01/19 01:12:17;;;;;;;20.85;12.27;;;1.90;77.70;;;;;;4153162;28;20094;-89
2023/01/19 01:14:36;;;;;;;17.00;11.00;;;1.90;77.80;;;;;;4156984;28;20595;-88
2023/01/19 01:16:56;;;;;;;18.10;10.93;;;1.90;77.80;;;;;;4152471;28;20086;-88
2023/01/19 01:19:15;;;;;;;18.20;11.48;;;1.90;77.90;;;;;;4154892;28;20044;-88
2023/01/19 01:21:36;;;;;;;18.88;10.98;;;1.90;77.90;;;;;;4133876;28;20044;-88
2023/01/19 01:23:54;;;;;;;19.45;10.63;;;1.90;77.90;;;;;;4152751;28;20044;-88
2023/01/19 01:26:13;;;;;;;17.77;10.82;;;1.90;77.90;;;;;;4135834;28;20374;-87
2023/01/19 01:28:33;;;;;;;20.92;11.15;;;1.90;77.90;;;;;;4153701;28;20476;-88
2023/01/19 01:30:53;;;;;;;18.60;10.73;;;2.00;78.00;;;;;;4151734;28;20161;-88
2023/01/19 01:33:13;;;;;;;17.48;11.02;;;2.00;78.00;;;;;;4154721;28;20072;-88
2023/01/19 01:35:32;;;;;;;17.67;10.85;;;2.10;78.00;;;;;;4159804;28;20083;-88
2023/01/19 01:37:51;;;;;;;17.73;11.52;;;2.00;78.00;;;;;;4156780;28;20539;-87
2023/01/19 01:40:13;;;;;;;19.48;11.35;;;2.00;78.30;;;;;;4134937;28;20089;-89
2023/01/19 01:42:36;;;;;;;17.63;10.77;;;2.00;78.00;;;;;;4156444;28;20116;-88
2023/01/19 01:44:58;;;;;;;19.50;11.00;;;2.00;77.90;;;;;;4157912;28;20092;-89
2023/01/19 01:47:38;;;;;;;18.40;11.38;;;2.00;77.80;;;;;;4135178;28;21452;-88
2023/01/19 01:50:11;;;;;;;19.20;11.27;;;2.00;77.80;;;;;;4133354;28;20100;-88
2023/01/19 01:52:35;;;;;;;19.70;11.20;;;2.00;77.80;;;;;;4148752;28;20418;-88
2023/01/19 01:54:55;;;;;;;20.63;12.10;;;2.00;77.70;;;;;;4134738;28;20207;-87
2023/01/19 01:57:14;;;;;;;23.35;11.43;;;2.00;77.70;;;;;;4151397;28;20040;-87
2023/01/19 01:59:38;;;;;;;22.65;11.38;;;2.00;77.80;;;;;;4155535;28;20056;-87
2023/01/19 02:04:46;;;;;;;19.40;11.98;;;2.00;77.80;;;;;;4154406;28;20052;-87
2023/01/19 02:15:00;;;;;;;23.30;12.80;;;2.00;77.80;;;;;;4160110;28;21440;-87
2023/01/19 02:17:20;;;;;;;22.95;12.18;;;2.00;77.90;;;;;;4138665;28;20037;-87
2023/01/19 02:19:42;;;;;;;21.10;10.85;;;2.00;77.90;;;;;;4151518;28;20079;-88
2023/01/19 02:22:11;;;;;;;21.20;11.55;;;2.00;77.90;;;;;;4151241;28;20045;-87
2023/01/19 02:24:31;;;;;;;20.85;11.27;;;2.00;78.00;;;;;;4157146;28;20088;-87
2023/01/19 02:26:50;;;;;;;23.42;11.25;;;2.00;78.00;;;;;;4156027;28;20068;-88
2023/01/19 02:29:21;;;;;;;22.20;11.95;;;2.00;78.10;;;;;;4159917;28;20554;-88
2023/01/19 02:31:41;;;;;;;20.75;10.82;;;2.00;78.20;;;;;;4145284;28;20519;-87
2023/01/19 02:34:02;;;;;;;16.58;10.23;;;2.10;78.30;;;;;;4159130;28;20048;-87
2023/01/19 02:36:38;;;;;;;15.70;9.95;;;2.00;78.30;;;;;;4153231;28;20091;-87
2023/01/19 02:39:01;;;;;;;18.42;10.60;;;2.10;78.40;;;;;;4157414;28;20152;-88
2023/01/19 02:41:25;;;;;;;18.70;9.77;;;2.10;79.20;;;;;;4151585;28;20524;-87
2023/01/19 02:43:44;;;;;;;;;;;2.10;78.50;;;;;;4153038;28;20052;-85
2023/01/19 02:46:04;;;;;;;21.42;11.15;;;2.10;78.60;;;;;;4150518;28;19936;-87
2023/01/19 02:48:23;;;;;;;19.65;9.80;;;2.10;78.40;;;;;;4156512;28;20040;-87
2023/01/19 02:50:46;;;;;;;16.02;9.95;;;2.20;78.50;;;;;;4153185;28;20040;-87
2023/01/19 02:53:31;;;;;;;18.70;10.77;;;2.20;78.50;;;;;;4157704;28;20048;-87
2023/01/19 02:56:22;;;;;;;18.15;10.63;;;2.20;78.70;;;;;;4151957;28;20132;-88
2023/01/19 02:58:55;;;;;;;21.30;11.05;;;2.20;78.70;;;;;;4134189;28;20608;-87
2023/01/19 03:01:26;;;;;;;21.02;11.43;;;2.20;78.70;;;;;;4155721;28;20044;-87
2023/01/19 03:04:14;;;;;;;19.25;11.55;;;2.20;78.70;;;;;;4152899;28;20044;-87
2023/01/19 03:06:50;;;;;;;20.85;10.88;;;2.20;78.80;;;;;;4139232;28;20088;-88
2023/01/19 03:09:34;;;;;;;17.02;10.68;;;2.20;78.70;;;;;;4153025;28;20096;-88
2023/01/19 03:12:22;;;;;;;17.77;10.73;;;2.20;78.80;;;;;;4138535;28;20048;-86
2023/01/19 03:14:46;;;;;;;16.52;10.90;;;2.20;78.70;;;;;;4124755;28;20113;-87
2023/01/19 03:17:09;;;;;;;20.10;10.10;;;2.30;78.70;;;;;;4151082;28;20493;-86
2023/01/19 03:19:42;;;;;;;17.48;12.07;;;2.30;78.60;;;;;;4154073;28;20468;-86
2023/01/19 03:22:11;;;;;;;18.08;10.52;;;2.30;78.70;;;;;;4151616;28;20445;-86
2023/01/19 03:24:35;;;;;;;19.63;11.73;;;2.30;78.50;;;;;;4152621;28;20078;-87
2023/01/19 03:27:00;;;;;;;18.15;10.07;;;2.30;78.40;;;;;;4133603;28;20464;-87
2023/01/19 03:29:21;;;;;;;17.42;10.27;;;2.20;78.40;;;;;;4128829;28;20124;-88
2023/01/19 03:31:44;;;;;;;17.13;10.13;;;2.20;78.50;;;;;;4124053;28;20552;-86
2023/01/19 03:34:08;;;;;;;14.40;9.23;;;2.20;78.50;;;;;;4130088;28;20040;-87
2023/01/19 03:36:44;;;;;;;17.02;9.57;;;2.20;78.50;;;;;;4144876;28;20056;-86
2023/01/19 03:39:06;;;;;;;13.15;9.20;;;2.30;78.60;;;;;;4130834;28;20068;-86
2023/01/19 03:41:27;;;;;;;17.50;9.98;;;2.30;78.60;;;;;;4149431;28;20091;-87
2023/01/19 03:43:48;;;;;;;16.02;9.00;;;2.20;78.60;;;;;;4135892;28;20184;-86
2023/01/19 03:46:09;;;;;;;15.30;8.88;;;2.30;78.60;;;;;;4138772;28;20414;-86
2023/01/19 03:48:30;;;;;;;18.60;9.05;;;2.30;78.70;;;;;;4152787;28;20044;-87
2023/01/19 03:50:51;;;;;;;14.80;9.50;;;2.30;78.70;;;;;;4134709;28;20065;-87
2023/01/19 03:53:12;;;;;;;13.63;8.68;;;2.30;78.40;;;;;;4160481;28;20044;-87
2023/01/19 03:55:35;;;;;;;14.93;9.10;;;2.30;78.70;;;;;;4135206;28;20105;-87
2023/01/19 03:57:54;;;;;;;14.88;9.23;;;2.30;78.70;;;;;;4149975;28;20033;-87
2023/01/19 04:00:14;;;;;;;14.50;8.75;;;2.30;78.80;;;;;;4140320;28;20036;-88
2023/01/19 04:02:34;;;;;;;16.67;10.10;;;2.30;78.80;;;;;;4148990;28;20075;-88
2023/01/19 04:04:53;;;;;;;16.17;9.05;;;2.30;78.90;;;;;;4148141;28;20140;-86
2023/01/19 04:07:12;;;;;;;20.40;9.88;;;2.30;79.00;;;;;;4150187;28;20083;-87
2023/01/19 04:09:31;;;;;;;15.70;9.63;;;2.30;78.90;;;;;;4152054;28;20060;-88
2023/01/19 04:11:50;;;;;;;18.92;10.73;;;2.30;79.00;;;;;;4146829;28;20045;-88
2023/01/19 04:14:09;;;;;;;18.30;10.27;;;2.40;79.00;;;;;;4153008;28;20040;-86
2023/01/19 04:16:28;;;;;;;18.17;10.45;;;2.30;78.80;;;;;;4154430;28;20040;-87
2023/01/19 04:18:47;;;;;;;18.40;10.02;;;2.30;78.80;;;;;;4133347;28;20056;-87
2023/01/19 04:21:07;;;;;;;17.42;10.48;;;2.30;78.80;;;;;;4151473;28;20293;-87
2023/01/19 04:23:27;;;;;;;18.08;9.90;;;2.30;78.80;;;;;;4153950;28;20071;-87
2023/01/19 04:25:46;;;;;;;18.55;10.60;;;2.30;78.90;;;;;;4153849;28;20048;-87
2023/01/19 04:28:05;;;;;;;19.52;9.55;;;2.30;78.90;;;;;;4152692;28;20124;-88
2023/01/19 04:30:26;;;;;;;17.17;10.60;;;2.30;78.90;;;;;;4152948;28;20047;-88
2023/01/19 04:32:45;;;;;;;16.02;10.70;;;2.30;79.00;;;;;;4151210;28;20106;-89
2023/01/19 04:35:05;;;;;;;14.43;9.48;;;2.30;78.90;;;;;;4136708;28;20104;-88
2023/01/19 04:37:24;;;;;;;16.08;8.98;;;2.30;79.00;;;;;;4151355;28;20043;-88
2023/01/19 04:39:43;;;;;;;17.63;9.45;;;2.30;79.00;;;;;;4150840;28;20072;-88
2023/01/19 04:42:02;;;;;;;14.93;8.73;;;2.30;79.00;;;;;;4150815;28;20099;-88
2023/01/19 04:44:22;;;;;;;16.90;8.70;;;2.40;79.10;;;;;;4135281;28;20041;-88
2023/01/19 04:46:41;;;;;;;13.82;9.25;;;2.30;79.00;;;;;;4151110;28;20161;-88
2023/01/19 04:49:00;;;;;;;16.02;8.75;;;2.30;78.90;;;;;;4134888;28;20040;-88
2023/01/19 04:51:19;;;;;;;13.70;8.20;;;2.30;78.90;;;;;;4134379;28;20120;-88
2023/01/19 04:53:39;;;;;;;18.92;8.00;;;2.30;78.70;;;;;;4135445;28;20037;-89
2023/01/19 04:55:59;;;;;;;10.93;7.00;;;2.30;78.50;;;;;;4152526;28;21337;-89
2023/01/19 04:58:18;;;;;;;9.57;6.20;;;2.30;78.40;;;;;;4133710;28;20117;-88
2023/01/19 05:00:38;;;;;;;12.15;6.18;;;2.20;78.20;;;;;;4149512;28;20060;-88
2023/01/19 05:02:57;;;;;;;10.25;6.25;;;2.20;78.10;;;;;;4155255;28;20144;-89
2023/01/19 05:05:16;;;;;;;12.63;6.40;;;2.20;78.00;;;;;;4152661;28;20037;-88
2023/01/19 05:07:36;;;;;;;9.38;5.97;;;2.10;78.00;;;;;;4142788;28;20040;-89
2023/01/19 05:09:55;;;;;;;11.27;6.15;;;2.10;78.00;;;;;;4136590;28;20560;-86
2023/01/19 05:12:15;;;;;;;10.13;5.88;;;2.10;78.10;;;;;;4159001;28;20048;-86
2023/01/19 05:14:34;;;;;;;7.70;5.50;;;2.00;78.00;;;;;;4163566;28;20045;-86
2023/01/19 05:16:53;;;;;;;7.25;5.13;;;2.00;78.00;;;;;;4154787;28;20071;-86
2023/01/19 05:19:12;;;;;;;6.93;5.10;;;2.00;78.20;;;;;;4149067;28;20262;-85
2023/01/19 05:21:31;;;;;;;9.35;5.22;;;2.00;78.40;;;;;;4136777;28;20147;-86
2023/01/19 05:23:50;;;;;;;5.72;4.47;;;1.90;78.50;;;;;;4151946;28;21144;-86
2023/01/19 05:26:09;;;;;;;7.28;4.57;;;1.90;78.70;;;;;;4135228;28;20080;-85
2023/01/19 05:28:30;;;;;;;5.68;3.95;;;1.90;78.90;;;;;;4138790;28;20104;-86
2023/01/19 05:30:49;;;;;;;7.10;4.45;;;1.90;78.90;;;;;;4132843;28;20033;-85
2023/01/19 05:33:08;;;;;;;5.60;3.80;;;1.90;79.00;;;;;;4147679;28;20437;-85
2023/01/19 05:35:27;;;;;;;7.40;4.30;;;1.90;79.10;;;;;;4131423;28;20088;-86
2023/01/19 05:37:47;;;;;;;7.72;4.18;;;1.90;79.20;;;;;;4147665;28;20080;-85
2023/01/19 05:40:08;;;;;;;10.02;4.43;;;1.90;79.30;;;;;;4137164;28;20108;-85
2023/01/19 05:42:27;;;;;;;11.90;4.22;;;1.90;79.30;;;;;;4151751;28;20437;-85
2023/01/19 05:44:46;;;;;;;9.30;4.68;;;1.90;79.30;;;;;;4154494;28;20037;-84
2023/01/19 05:47:05;;;;;;;10.63;4.72;;;1.90;79.40;;;;;;4147779;28;20052;-85
2023/01/19 05:49:24;;;;;;;12.70;5.13;;;1.90;79.50;;;;;;4154170;28;20477;-85
2023/01/19 05:51:44;;;;;;;11.07;4.85;;;1.90;79.70;;;;;;4153438;28;20055;-84
2023/01/19 05:54:04;;;;;;;12.15;5.45;;;1.90;79.80;;;;;;4150619;28;20707;-84
2023/01/19 05:56:24;;;;;;;12.95;5.00;;;1.90;79.90;;;;;;4129737;28;20048;-85
2023/01/19 05:58:43;;;;;;;11.02;5.18;;;2.00;80.00;;;;;;4131311;28;20057;-85
2023/01/19 06:01:04;;;;;;;11.05;5.50;;;2.00;80.10;;;;;;4146098;28;20072;-84
2023/01/19 06:03:23;;;;;;;10.23;4.38;;;2.00;80.30;;;;;;4145076;28;20047;-85
2023/01/19 06:05:42;;;;;;;11.85;5.40;;;2.00;80.40;;;;;;4156405;28;20112;-84
2023/01/19 06:08:01;;;;;;;19.42;6.28;;;2.10;80.50;;;;;;4131375;28;20057;-85
2023/01/19 06:10:20;;;;;;;13.90;6.35;;;2.10;80.60;;;;;;4157960;28;20053;-84
2023/01/19 06:12:40;;;;;;;18.73;6.95;;;2.10;80.70;;;;;;4146485;28;20036;-85
2023/01/19 06:15:00;;;;;;;11.23;6.45;;;2.10;80.90;;;;;;4157832;28;20131;-85
2023/01/19 06:17:19;;;;;;;16.65;7.05;;;2.20;81.00;;;;;;4149184;28;20091;-86
2023/01/19 06:19:38;;;;;;;13.10;6.63;;;2.20;81.20;;;;;;4152238;28;20082;-85
2023/01/19 06:21:57;;;;;;;16.95;6.57;;;2.20;81.20;;;;;;4137146;28;20048;-86
2023/01/19 06:24:17;;;;;;;11.27;6.13;;;2.30;81.20;;;;;;4154313;28;20036;-85
2023/01/19 06:26:36;;;;;;;11.63;7.18;;;2.30;81.10;;;;;;4143486;28;20437;-85
2023/01/19 06:28:56;;;;;;;12.07;6.85;;;2.30;81.00;;;;;;4149708;28;20041;-86
2023/01/19 06:31:15;;;;;;;11.85;6.30;;;2.30;81.00;;;;;;4142436;28;20341;-85
2023/01/19 06:33:35;;;;;;;10.70;5.85;;;2.30;80.80;;;;;;4153862;28;20051;-85
2023/01/19 06:35:55;;;;;;;11.75;6.15;;;2.30;80.60;;;;;;4158876;28;20062;-85
2023/01/19 06:38:17;;;;;;;9.02;5.63;;;2.40;80.70;;;;;;4159660;28;20048;-86
2023/01/19 06:40:36;;;;;;;12.68;6.15;;;2.40;80.50;;;;;;4135453;28;20117;-85
2023/01/19 06:42:55;;;;;;;12.30;5.95;;;2.40;80.50;;;;;;4151149;28;20040;-85
2023/01/19 06:45:15;;;;;;;11.38;6.35;;;2.40;80.50;;;;;;4139674;28;20052;-85
2023/01/19 06:47:34;;;;;;;11.77;6.90;;;2.30;80.30;;;;;;4157132;28;20044;-86
2023/01/19 06:49:53;;;;;;;13.32;7.25;;;2.40;81.20;;;;;;4155161;28;20121;-85
2023/01/19 06:52:17;;;;;;;13.68;7.68;;;2.30;80.50;;;;;;4157099;28;20052;-86
2023/01/19 06:54:36;;;;;;;16.20;8.20;;;2.30;80.40;;;;;;4153972;28;20036;-86
2023/01/19 06:56:55;;;;;;;13.75;7.80;;;2.30;80.50;;;;;;4141582;28;20625;-85
2023/01/19 06:59:14;;;;;;;15.43;8.43;;;2.30;80.50;;;;;;4148423;28;20166;-86
2023/01/19 07:01:33;;;;;;;14.38;8.20;;;2.30;80.60;;;;;;4157661;28;20067;-85
2023/01/19 07:03:53;;;;;;;17.75;9.15;;;2.40;80.70;;;;;;4157099;28;20040;-86
2023/01/19 07:06:12;;;;;;;19.13;9.38;;;2.40;80.70;;;;;;4139520;28;20073;-87
2023/01/19 07:08:32;;;;;;;15.98;9.80;;;2.40;80.70;;;;;;4157271;28;20111;-86
2023/01/19 07:10:51;;;;;;;15.45;9.35;;;2.40;80.70;;;;;;4128645;28;20060;-86
2023/01/19 07:13:10;;;;;;;18.10;10.30;;;2.40;80.80;;;;;;4152697;28;20151;-86
2023/01/19 07:15:29;;;;;;;18.85;10.07;;;2.40;80.90;;;;;;4147421;28;20052;-86
2023/01/19 07:17:48;;;;;;;14.43;9.23;;;2.40;80.80;;;;;;4153032;28;20724;-86
2023/01/19 07:20:13;;;;;;;15.05;9.63;;;2.40;80.80;;;;;;4158606;28;20048;-86
2023/01/19 07:22:32;;;;;;;18.65;10.18;;;2.50;80.70;;;;;;4149734;28;20179;-86
2023/01/19 07:24:51;;;;;;;17.90;9.77;;;2.50;80.70;;;;;;4155555;28;20044;-86
2023/01/19 07:27:13;;;;;;;19.00;10.10;;;2.50;80.80;;;;;;4146762;28;20398;-86
2023/01/19 07:29:32;;;;;;;15.57;9.35;;;2.50;80.80;;;;;;4136512;28;20524;-86
2023/01/19 07:31:53;;;;;;;15.85;10.05;;;2.50;80.70;;;;;;4132991;28;20040;-86
2023/01/19 07:34:13;;;;;;;19.38;10.48;;;2.50;81.40;;;;;;4154903;28;20742;-86
2023/01/19 07:36:32;;;;;;;14.90;9.95;;;2.50;80.70;;;;;;4136444;28;20056;-86
2023/01/19 07:38:51;;;;;;;14.90;9.15;;;2.50;80.70;;;;;;4151249;28;20140;-86
2023/01/19 07:41:10;;;;;;;20.20;11.27;;;2.50;80.60;;;;;;4148794;28;20048;-86
2023/01/19 07:43:30;;;;;;;16.02;10.13;;;2.50;80.60;;;;;;4135519;28;20918;-86
2023/01/19 07:45:49;;;;;;;17.48;10.75;;;2.50;80.60;;;;;;4137562;28;20065;-86
2023/01/19 07:48:08;;;;;;;19.30;11.00;;;2.50;80.50;;;;;;4135932;28;20121;-86
2023/01/19 07:50:28;;;;;;;18.20;10.45;;;2.60;80.80;;;;;;4138357;28;20060;-86
2023/01/19 07:52:52;;;;;;;20.30;10.88;;;2.60;80.70;;;;;;4152539;28;20036;-86
2023/01/19 07:55:11;;;;;;;18.83;10.18;;;2.60;80.60;;;;;;4153988;28;20168;-86
2023/01/19 07:57:30;;;;;;;21.58;10.68;;;2.60;80.60;;;;;;4156564;28;20068;-85
2023/01/19 07:59:49;;;;;;;21.23;10.77;;;2.60;80.50;;;;;;4144968;28;20029;-87
2023/01/19 08:02:09;;;;;;;16.33;9.63;;;2.60;80.50;;;;;;4157671;28;20533;-87
2023/01/19 08:04:28;;;;;;;17.70;10.15;;;2.60;80.40;;;;;;4149340;28;20040;-85
2023/01/19 08:06:47;;;;;;;16.88;9.90;;;2.70;80.50;;;;;;4150496;28;20194;-85
2023/01/19 08:09:06;;;;;;;15.98;9.55;;;2.60;80.30;;;;;;4151888;28;21578;-85
2023/01/19 08:11:25;;;;;;;18.25;9.48;;;2.60;80.30;;;;;;4147400;28;20071;-86
2023/01/19 08:13:44;;;;;;;18.02;9.13;;;2.60;80.20;;;;;;4155671;28;20820;-86
2023/01/19 08:16:04;;;;;;;18.13;9.23;;;2.70;80.20;;;;;;4150144;28;20044;-85
2023/01/19 08:18:23;;;;;;;17.40;9.00;;;2.70;80.30;;;;;;4150223;28;20048;-86
2023/01/19 08:20:42;;;;;;;15.32;8.88;;;2.70;79.90;;;;;;4152058;28;20936;-86
2023/01/19 08:23:02;;;;;;;13.55;8.48;;;2.70;80.00;;;;;;4133820;28;20084;-86
2023/01/19 08:25:22;;;;;;;19.00;9.93;;;2.90;80.10;;;;;;4150478;28;20551;-85
2023/01/19 08:27:41;;;;;;;17.80;8.93;;;2.70;79.90;;;;;;4152202;28;20068;-85
2023/01/19 08:30:00;;;;;;;17.17;9.05;;;2.70;79.80;;;;;;4152770;28;20040;-85
2023/01/19 08:32:20;;;;;;;16.77;8.93;;;2.70;79.70;;;;;;4151295;28;20654;-86
2023/01/19 08:34:39;;;;;;;16.33;8.98;;;2.80;79.80;;;;;;4155511;28;20044;-86
2023/01/19 08:36:58;;;;;;;16.33;9.10;;;2.80;79.70;;;;;;4152378;28;20059;-85
2023/01/19 08:39:17;;;;;;;14.73;8.63;;;2.80;79.70;;;;;;4150396;28;20044;-86
2023/01/19 08:41:37;;;;;;;14.82;8.15;;;2.90;79.70;;;;;;4155006;28;20043;-86
2023/01/19 08:43:56;;;;;;;17.27;8.18;;;2.80;79.70;;;;;;4155994;28;20264;-85
2023/01/19 08:46:16;;;;;;;15.65;8.73;;;2.80;79.60;;;;;;4152568;28;20116;-85
2023/01/19 08:48:35;;;;;;;16.58;8.50;;;2.70;79.40;;;;;;4155289;28;20047;-85
2023/01/19 08:50:54;;;;;;;13.57;7.25;;;2.80;79.40;;;;;;4137141;28;20036;-86
2023/01/19 08:53:14;;;;;;;13.80;8.32;;;2.80;79.40;;;;;;4157096;28;20048;-85
2023/01/19 08:55:35;;;;;;;17.23;8.10;;;2.80;79.40;;;;;;4134434;28;20418;-86
2023/01/19 08:57:56;;;;;;;17.05;8.70;;;2.80;79.40;;;;;;4135154;28;20609;-86
2023/01/19 09:00:16;;;;;;;16.67;8.50;;;2.80;79.30;;;;;;4152029;28;20056;-85
2023/01/19 09:02:35;;;;;;;15.00;8.05;;;2.80;79.30;;;;;;4154566;28;20039;-85
2023/01/19 09:04:54;;;;;;;14.38;8.20;;;2.90;79.40;;;;;;4155278;28;20131;-85
2023/01/19 09:07:13;;;;;;;16.02;7.43;;;2.90;79.40;;;;;;4136028;28;20068;-86
2023/01/19 09:09:36;;;;;;;14.18;7.85;;;2.90;79.50;;;;;;4155362;28;20087;-86
2023/01/19 09:11:55;;;;;;;12.48;8.05;;;2.90;79.50;;;;;;4155869;28;20091;-86
2023/01/19 09:14:14;;;;;;;14.48;8.10;;;2.90;79.50;;;;;;4139305;28;20048;-85
2023/01/19 09:16:33;;;;;;;18.25;8.18;;;3.00;79.70;;;;;;4149095;28;20130;-85
2023/01/19 09:18:53;;;;;;;16.10;7.97;;;3.00;79.70;;;;;;4140137;28;20564;-86
2023/01/19 09:21:12;;;;;;;14.77;7.78;;;3.00;79.70;;;;;;4154138;28;20087;-86
2023/01/19 09:23:31;;;;;;;14.32;7.38;;;3.10;79.70;;;;;;4152151;28;20057;-86
2023/01/19 09:25:59;;;;;;;15.23;7.22;;;3.10;79.70;;;;;;4141554;28;20060;-87
2023/01/19 09:28:18;;;;;;;15.05;7.38;;;3.10;79.60;;;;;;4154067;28;20053;-85
2023/01/19 09:30:39;;;;;;;12.18;7.05;;;3.20;79.60;;;;;;4153628;28;20044;-85
2023/01/19 09:33:05;;;;;;;10.20;6.32;;;3.20;79.40;;;;;;4148460;28;20084;-86
2023/01/19 09:35:24;;;;;;;13.43;6.93;;;3.20;79.40;;;;;;4149721;28;20088;-85
2023/01/19 09:37:47;;;;;;;11.00;7.13;;;3.30;79.40;;;;;;4135810;28;20813;-86
2023/01/19 09:40:09;;;;;;;14.00;7.53;;;3.30;79.40;;;;;;4149921;28;20051;-86
2023/01/19 09:42:28;;;;;;;16.25;7.70;;;3.30;79.40;;;;;;4151385;28;20059;-86
2023/01/19 09:44:49;;;;;;;13.05;6.82;;;3.40;79.40;;;;;;4150748;28;20056;-85
2023/01/19 09:47:18;;;;;;;18.80;7.57;;;3.40;79.30;;;;;;4152474;28;20091;-86
2023/01/19 09:49:44;;;;;;;12.27;7.18;;;3.40;79.20;;;;;;4151274;28;20040;-86
2023/01/19 09:52:08;;;;;;;13.43;7.25;;;3.50;79.20;;;;;;4156612;28;20076;-87
2023/01/19 09:54:51;;;;;;;19.58;7.40;;;3.50;79.10;;;;;;4154881;28;20524;-86
2023/01/19 09:57:12;;;;;;;13.88;7.47;;;3.50;79.10;;;;;;4161155;28;20060;-85
2023/01/19 09:59:32;;;;;;;15.38;7.60;;;3.60;79.00;;;;;;4149730;28;20047;-85
2023/01/19 10:02:18;;;;;;;14.93;7.07;;;3.60;78.90;;;;;;4146784;28;20080;-85
2023/01/19 10:04:44;;;;;;;14.00;7.70;;;3.60;78.70;;;;;;4144990;28;20037;-86
2023/01/19 10:07:31;;;;;;;15.18;6.90;;;3.70;78.80;;;;;;4149682;28;20117;-87
2023/01/19 10:10:02;;;;;;;13.10;7.22;;;3.70;78.70;;;;;;4152459;28;20395;-87
2023/01/19 10:12:44;;;;;;;15.57;7.32;;;3.70;78.60;;;;;;4153104;28;20064;-86
2023/01/19 10:15:11;;;;;;;14.45;7.10;;;3.70;78.50;;;;;;4109488;28;20133;-87
2023/01/19 10:17:44;;;;;;;12.05;6.70;;;3.80;78.60;;;;;;4109200;28;20742;-86
2023/01/19 10:20:18;;;;;;;15.38;7.43;;;3.70;78.40;;;;;;4107657;28;20085;-86
2023/01/19 10:22:37;;;;;;;15.93;6.82;;;3.80;78.30;;;;;;4105535;28;20052;-87
2023/01/19 10:25:00;;;;;;;17.70;6.75;;;3.80;78.30;;;;;;4105945;28;20045;-86
2023/01/19 10:27:25;;;;;;;20.17;7.17;;;3.80;78.20;;;;;;4107095;28;20065;-86
2023/01/19 10:29:45;;;;;;;16.42;6.60;;;3.90;78.10;;;;;;4111008;28;20040;-87
2023/01/19 10:32:08;;;;;;;17.02;7.53;;;3.80;78.00;;;;;;4107633;28;20518;-86
2023/01/19 10:34:28;;;;;;;;;;;3.80;77.90;;;;;;4105392;28;20181;-87
2023/01/19 10:36:49;;;;;;;15.13;6.10;;;3.90;78.50;;;;;;4104162;28;20053;-85
2023/01/19 10:39:11;;;;;;;12.50;6.45;;;3.90;77.80;;;;;;4104031;28;20541;-87
2023/01/19 10:41:41;;;;;;;16.85;6.53;;;3.90;78.00;;;;;;4105207;28;20198;-87
2023/01/19 10:44:02;;;;;;;14.50;7.78;;;3.90;78.20;;;;;;4108424;28;20182;-87
2023/01/19 10:46:43;;;;;;;12.85;7.60;;;4.00;78.30;;;;;;4106585;28;20321;-87
2023/01/19 10:49:03;;;;;;;16.13;8.18;;;4.00;78.30;;;;;;4105062;28;20356;-87
2023/01/19 10:51:22;;;;;;;21.17;7.85;;;4.00;78.30;;;;;;4118926;28;20053;-87
2023/01/19 10:53:59;;;;;;;17.42;7.72;;;4.00;78.30;;;;;;4160262;28;20048;-86
2023/01/19 10:56:25;;;;;;;13.63;7.40;;;4.10;78.30;;;;;;4142971;28;20092;-87
2023/01/19 10:58:45;;;;;;;18.67;8.10;;;4.10;78.20;;;;;;4155202;28;20052;-86
2023/01/19 11:01:19;;;;;;;19.02;7.93;;;4.10;78.00;;;;;;4139839;28;20603;-87
2023/01/19 11:03:39;;;;;;;13.88;7.72;;;4.10;77.80;;;;;;4154253;28;20542;-86
2023/01/19 11:06:19;;;;;;;18.48;7.65;;;4.20;77.70;;;;;;4136017;28;20406;-86
2023/01/19 11:08:38;;;;;;;18.55;7.72;;;4.20;77.80;;;;;;4139699;28;20048;-87
2023/01/19 11:11:03;;;;;;;21.30;7.80;;;4.20;77.10;;;;;;4156863;28;20040;-87
2023/01/19 11:13:23;;;;;;;17.95;7.90;;;4.20;76.90;;;;;;4153898;28;20041;-87
2023/01/19 11:15:53;;;;;;;19.52;8.65;;;4.20;76.80;;;;;;4143543;28;20033;-86
2023/01/19 11:18:42;;;;;;;19.45;8.40;;;4.20;76.60;;;;;;4155852;28;20045;-86
2023/01/19 11:21:10;;;;;;;16.50;8.60;;;4.20;76.50;;;;;;4103021;28;20089;-87
2023/01/19 11:23:36;;;;;;;19.77;8.07;;;4.20;76.60;;;;;;4105786;28;20091;-86
2023/01/19 11:26:00;;;;;;;17.90;8.95;;;4.20;76.50;;;;;;4109936;28;20101;-87
2023/01/19 11:28:27;;;;;;;17.08;8.43;;;4.20;76.90;;;;;;4108797;28;20038;-87
2023/01/19 11:31:14;;;;;;;20.08;8.27;;;4.20;76.80;;;;;;4109591;28;20478;-87
2023/01/19 11:33:46;;;;;;;23.85;8.98;;;4.20;76.90;;;;;;4102337;28;20026;-87
2023/01/19 11:36:16;;;;;;;20.23;9.93;;;4.30;77.20;;;;;;4104556;28;20065;-86
2023/01/19 11:38:42;;;;;;;20.48;9.23;;;4.40;77.20;;;;;;4111724;28;20038;-87
2023/01/19 11:41:05;;;;;;;17.17;8.57;;;4.40;77.20;;;;;;4091510;28;20050;-87
2023/01/19 11:43:28;;;;;;;20.25;8.43;;;4.50;77.10;;;;;;4094103;28;20646;-88
2023/01/19 11:45:47;;;;;;;19.75;8.02;;;4.50;76.80;;;;;;4109796;28;20561;-86
2023/01/19 11:48:21;;;;;;;18.15;7.40;;;4.50;76.60;;;;;;4104355;28;20470;-87
2023/01/19 11:50:42;;;;;;;12.85;7.35;;;4.50;76.50;;;;;;4105750;28;20082;-88
2023/01/19 11:53:22;;;;;;;15.35;7.30;;;4.60;76.20;;;;;;4101119;28;20790;-87
2023/01/19 11:56:06;;;;;;;12.13;6.60;;;4.60;76.00;;;;;;4096151;28;20677;-88
2023/01/19 11:58:26;;;;;;;19.20;6.03;;;4.60;75.80;;;;;;4137378;28;20046;-87
2023/01/19 12:00:57;;;;;;;16.77;5.65;;;4.60;76.00;;;;;;4155349;28;20088;-87
2023/01/19 12:03:21;;;;;;;14.73;4.95;;;4.70;75.90;;;;;;4148877;28;20444;-87
2023/01/19 12:05:28;;;;;;;11.23;4.88;;;4.70;76.00;;;;;;4132221;28;20053;-88
2023/01/19 12:07:32;;;;;;;11.57;4.80;;;4.70;76.10;;;;;;4135672;28;20026;-88
2023/01/19 12:09:41;;;;;;;14.27;4.75;;;4.70;76.10;;;;;;4158529;28;20038;-87
2023/01/19 12:11:47;;;;;;;9.00;4.20;;;4.80;76.20;;;;;;4157402;28;20021;-87
2023/01/19 12:13:50;;;;;;;11.68;4.22;;;4.80;75.90;;;;;;4158590;28;20037;-87
2023/01/19 12:15:58;;;;;;;9.98;3.92;;;4.80;75.90;;;;;;4157648;28;20034;-88
2023/01/19 12:18:01;;;;;;;11.30;4.03;;;4.90;75.90;;;;;;4170814;28;20026;-87
2023/01/19 12:20:17;;;;;;;18.52;4.18;;;4.90;75.40;;;;;;4149354;28;20044;-87
2023/01/19 12:22:19;;;;;;;7.47;3.35;;;4.90;75.40;;;;;;4137424;28;20411;-87
2023/01/19 12:24:29;;;;;;;7.88;3.22;;;4.90;75.00;;;;;;4154018;28;20049;-87
2023/01/19 12:26:47;;;;;;;11.90;2.55;;;4.90;74.80;;;;;;4152886;28;20038;-87
2023/01/19 12:28:50;;;;;;;17.42;2.67;;;4.90;74.70;;;;;;4151140;28;20025;-87
2023/01/19 12:30:52;;;;;;;10.55;2.22;;;4.90;74.70;;;;;;4148552;28;20018;-87